sensor_id;sensor_type;location;lat;lon;timestamp;P1;durP1;ratioP1;P2;durP2;ratioP2
64857;SDS011;51335;51.148;6.950;2023-05-10T00:00:09;12.20;;;9.98;;
64857;SDS011;51335;51.148;6.950;2023-05-10T00:00:40;15.52;;;9.75;;
64857;SDS011;51335;51.148;6.950;2023-05-10T00:01:10;13.45;;;10.32;;
64857;SDS011;51335;51.148;6.950;2023-05-10T00:01:40;14.25;;;10.73;;
64857;SDS011;51335;51.148;6.950;2023-05-10T00:02:11;12.68;;;9.95;;
64857;SDS011;51335;51.148;6.950;2023-05-10T00:02:41;13.20;;;10.38;;
64857;SDS011;51335;51.148;6.950;2023-05-10T00:03:11;13.48;;;10.50;;
64857;SDS011;51335;51.148;6.950;2023-05-10T00:03:41;14.68;;;10.20;;
64857;SDS011;51335;51.148;6.950;2023-05-10T00:04:12;13.20;;;10.05;;
64857;SDS011;51335;51.148;6.950;2023-05-10T00:04:42;13.45;;;10.50;;
64857;SDS011;51335;51.148;6.950;2023-05-10T00:05:12;14.80;;;10.27;;
64857;SDS011;51335;51.148;6.950;2023-05-10T00:05:43;14.38;;;10.70;;
64857;SDS011;51335;51.148;6.950;2023-05-10T00:06:13;14.93;;;10.32;;
64857;SDS011;51335;51.148;6.950;2023-05-10T00:06:43;13.70;;;10.80;;
64857;SDS011;51335;51.148;6.950;2023-05-10T00:07:13;14.38;;;10.77;;
64857;SDS011;51335;51.148;6.950;2023-05-10T00:07:44;15.30;;;10.35;;
64857;SDS011;51335;51.148;6.950;2023-05-10T00:08:14;13.20;;;10.40;;
64857;SDS011;51335;51.148;6.950;2023-05-10T00:08:44;15.43;;;10.88;;
64857;SDS011;51335;51.148;6.950;2023-05-10T00:09:15;13.77;;;10.55;;
64857;SDS011;51335;51.148;6.950;2023-05-10T00:09:45;15.88;;;10.93;;
64857;SDS011;51335;51.148;6.950;2023-05-10T00:10:15;14.88;;;11.02;;
64857;SDS011;51335;51.148;6.950;2023-05-10T00:10:46;13.63;;;10.75;;
64857;SDS011;51335;51.148;6.950;2023-05-10T00:11:16;14.55;;;10.30;;
64857;SDS011;51335;51.148;6.950;2023-05-10T00:11:46;12.93;;;10.27;;
64857;SDS011;51335;51.148;6.950;2023-05-10T00:12:17;14.18;;;10.57;;
64857;SDS011;51335;51.148;6.950;2023-05-10T00:12:47;14.68;;;10.68;;
64857;SDS011;51335;51.148;6.950;2023-05-10T00:13:17;12.57;;;10.40;;
64857;SDS011;51335;51.148;6.950;2023-05-10T00:13:48;14.55;;;10.65;;
64857;SDS011;51335;51.148;6.950;2023-05-10T00:14:18;14.77;;;11.10;;
64857;SDS011;51335;51.148;6.950;2023-05-10T00:14:48;14.23;;;11.10;;
64857;SDS011;51335;51.148;6.950;2023-05-10T00:15:18;13.27;;;10.93;;
64857;SDS011;51335;51.148;6.950;2023-05-10T00:15:49;14.20;;;11.02;;
64857;SDS011;51335;51.148;6.950;2023-05-10T00:16:19;15.07;;;11.35;;
64857;SDS011;51335;51.148;6.950;2023-05-10T00:16:49;13.20;;;10.13;;
64857;SDS011;51335;51.148;6.950;2023-05-10T00:17:20;15.07;;;11.25;;
64857;SDS011;51335;51.148;6.950;2023-05-10T00:17:50;13.70;;;11.07;;
64857;SDS011;51335;51.148;6.950;2023-05-10T00:18:20;16.48;;;11.35;;
64857;SDS011;51335;51.148;6.950;2023-05-10T00:18:50;15.95;;;11.18;;
64857;SDS011;51335;51.148;6.950;2023-05-10T00:19:21;17.00;;;11.45;;
64857;SDS011;51335;51.148;6.950;2023-05-10T00:19:51;13.57;;;10.52;;
64857;SDS011;51335;51.148;6.950;2023-05-10T00:20:21;15.48;;;11.30;;
64857;SDS011;51335;51.148;6.950;2023-05-10T00:20:52;14.05;;;10.77;;
64857;SDS011;51335;51.148;6.950;2023-05-10T00:21:22;15.18;;;11.07;;
64857;SDS011;51335;51.148;6.950;2023-05-10T00:21:52;15.85;;;11.25;;
64857;SDS011;51335;51.148;6.950;2023-05-10T00:22:23;14.57;;;10.98;;
64857;SDS011;51335;51.148;6.950;2023-05-10T00:22:53;18.58;;;11.70;;
64857;SDS011;51335;51.148;6.950;2023-05-10T00:23:23;14.90;;;11.55;;
64857;SDS011;51335;51.148;6.950;2023-05-10T00:23:54;15.70;;;11.43;;
64857;SDS011;51335;51.148;6.950;2023-05-10T00:24:24;14.30;;;11.40;;
64857;SDS011;51335;51.148;6.950;2023-05-10T00:24:54;14.45;;;10.93;;
64857;SDS011;51335;51.148;6.950;2023-05-10T00:25:25;13.43;;;10.65;;
64857;SDS011;51335;51.148;6.950;2023-05-10T00:25:55;17.05;;;11.40;;
64857;SDS011;51335;51.148;6.950;2023-05-10T00:26:26;14.57;;;11.05;;
64857;SDS011;51335;51.148;6.950;2023-05-10T00:26:56;16.67;;;11.73;;
64857;SDS011;51335;51.148;6.950;2023-05-10T00:27:26;14.50;;;11.25;;
64857;SDS011;51335;51.148;6.950;2023-05-10T00:27:56;15.50;;;11.10;;
64857;SDS011;51335;51.148;6.950;2023-05-10T00:28:27;15.55;;;11.38;;
64857;SDS011;51335;51.148;6.950;2023-05-10T00:28:58;15.20;;;11.70;;
64857;SDS011;51335;51.148;6.950;2023-05-10T00:29:28;17.58;;;11.75;;
64857;SDS011;51335;51.148;6.950;2023-05-10T00:29:58;16.30;;;11.48;;
64857;SDS011;51335;51.148;6.950;2023-05-10T00:30:28;18.52;;;11.35;;
64857;SDS011;51335;51.148;6.950;2023-05-10T00:30:59;15.68;;;11.25;;
64857;SDS011;51335;51.148;6.950;2023-05-10T00:31:29;17.08;;;11.60;;
64857;SDS011;51335;51.148;6.950;2023-05-10T00:31:59;15.50;;;11.43;;
64857;SDS011;51335;51.148;6.950;2023-05-10T00:32:30;13.90;;;10.68;;
64857;SDS011;51335;51.148;6.950;2023-05-10T00:33:00;14.70;;;11.57;;
64857;SDS011;51335;51.148;6.950;2023-05-10T00:33:30;16.17;;;11.90;;
64857;SDS011;51335;51.148;6.950;2023-05-10T00:34:00;16.10;;;11.75;;
64857;SDS011;51335;51.148;6.950;2023-05-10T00:34:31;19.02;;;11.95;;
64857;SDS011;51335;51.148;6.950;2023-05-10T00:35:01;16.13;;;11.82;;
64857;SDS011;51335;51.148;6.950;2023-05-10T00:35:31;14.85;;;11.30;;
64857;SDS011;51335;51.148;6.950;2023-05-10T00:36:02;16.13;;;11.18;;
64857;SDS011;51335;51.148;6.950;2023-05-10T00:36:32;15.85;;;12.10;;
64857;SDS011;51335;51.148;6.950;2023-05-10T00:37:03;17.63;;;11.38;;
64857;SDS011;51335;51.148;6.950;2023-05-10T00:37:33;17.73;;;12.15;;
64857;SDS011;51335;51.148;6.950;2023-05-10T00:38:03;15.88;;;11.63;;
64857;SDS011;51335;51.148;6.950;2023-05-10T00:38:34;16.45;;;12.05;;
64857;SDS011;51335;51.148;6.950;2023-05-10T00:39:04;17.30;;;12.10;;
64857;SDS011;51335;51.148;6.950;2023-05-10T00:39:34;16.35;;;11.60;;
64857;SDS011;51335;51.148;6.950;2023-05-10T00:40:05;15.68;;;11.77;;
64857;SDS011;51335;51.148;6.950;2023-05-10T00:40:36;16.83;;;12.00;;
64857;SDS011;51335;51.148;6.950;2023-05-10T00:41:06;16.65;;;11.65;;
64857;SDS011;51335;51.148;6.950;2023-05-10T00:41:37;21.60;;;12.80;;
64857;SDS011;51335;51.148;6.950;2023-05-10T00:42:07;18.02;;;12.05;;
64857;SDS011;51335;51.148;6.950;2023-05-10T00:42:37;16.20;;;11.50;;
64857;SDS011;51335;51.148;6.950;2023-05-10T00:43:08;17.58;;;11.48;;
64857;SDS011;51335;51.148;6.950;2023-05-10T00:43:38;16.30;;;11.73;;
64857;SDS011;51335;51.148;6.950;2023-05-10T00:44:08;19.48;;;12.13;;
64857;SDS011;51335;51.148;6.950;2023-05-10T00:44:39;17.40;;;12.23;;
64857;SDS011;51335;51.148;6.950;2023-05-10T00:45:09;17.40;;;11.95;;
64857;SDS011;51335;51.148;6.950;2023-05-10T00:45:39;17.10;;;12.27;;
64857;SDS011;51335;51.148;6.950;2023-05-10T00:46:10;18.83;;;12.48;;
64857;SDS011;51335;51.148;6.950;2023-05-10T00:46:41;19.27;;;12.88;;
64857;SDS011;51335;51.148;6.950;2023-05-10T00:47:11;15.65;;;11.48;;
64857;SDS011;51335;51.148;6.950;2023-05-10T00:47:42;17.05;;;12.05;;
64857;SDS011;51335;51.148;6.950;2023-05-10T00:48:12;17.98;;;12.35;;
64857;SDS011;51335;51.148;6.950;2023-05-10T00:48:43;18.10;;;11.90;;
64857;SDS011;51335;51.148;6.950;2023-05-10T00:49:14;18.00;;;11.60;;
64857;SDS011;51335;51.148;6.950;2023-05-10T00:49:45;18.55;;;12.90;;
64857;SDS011;51335;51.148;6.950;2023-05-10T00:50:16;18.98;;;12.85;;
64857;SDS011;51335;51.148;6.950;2023-05-10T00:50:46;16.70;;;11.57;;
64857;SDS011;51335;51.148;6.950;2023-05-10T00:51:17;18.33;;;12.00;;
64857;SDS011;51335;51.148;6.950;2023-05-10T00:51:47;18.05;;;11.85;;
64857;SDS011;51335;51.148;6.950;2023-05-10T00:52:18;15.80;;;11.93;;
64857;SDS011;51335;51.148;6.950;2023-05-10T00:52:49;18.98;;;12.43;;
64857;SDS011;51335;51.148;6.950;2023-05-10T00:53:20;18.30;;;12.60;;
64857;SDS011;51335;51.148;6.950;2023-05-10T00:53:51;17.58;;;12.55;;
64857;SDS011;51335;51.148;6.950;2023-05-10T00:54:21;19.30;;;12.80;;
64857;SDS011;51335;51.148;6.950;2023-05-10T00:54:51;18.00;;;12.30;;
64857;SDS011;51335;51.148;6.950;2023-05-10T00:55:22;20.30;;;11.70;;
64857;SDS011;51335;51.148;6.950;2023-05-10T00:55:52;16.83;;;11.60;;
64857;SDS011;51335;51.148;6.950;2023-05-10T00:56:23;17.95;;;12.20;;
64857;SDS011;51335;51.148;6.950;2023-05-10T00:56:53;17.27;;;12.35;;
64857;SDS011;51335;51.148;6.950;2023-05-10T00:57:23;22.02;;;11.77;;
64857;SDS011;51335;51.148;6.950;2023-05-10T00:57:54;17.50;;;12.07;;
64857;SDS011;51335;51.148;6.950;2023-05-10T00:58:24;18.50;;;12.38;;
64857;SDS011;51335;51.148;6.950;2023-05-10T00:58:55;17.45;;;12.48;;
64857;SDS011;51335;51.148;6.950;2023-05-10T00:59:25;18.27;;;12.05;;
64857;SDS011;51335;51.148;6.950;2023-05-10T00:59:56;18.30;;;12.55;;
64857;SDS011;51335;51.148;6.950;2023-05-10T01:00:27;16.77;;;12.20;;
64857;SDS011;51335;51.148;6.950;2023-05-10T01:00:57;16.85;;;12.50;;
64857;SDS011;51335;51.148;6.950;2023-05-10T01:01:29;16.38;;;11.98;;
64857;SDS011;51335;51.148;6.950;2023-05-10T01:01:59;16.63;;;12.20;;
64857;SDS011;51335;51.148;6.950;2023-05-10T01:02:30;17.77;;;12.55;;
64857;SDS011;51335;51.148;6.950;2023-05-10T01:03:00;16.02;;;11.60;;
64857;SDS011;51335;51.148;6.950;2023-05-10T01:03:30;16.58;;;12.05;;
64857;SDS011;51335;51.148;6.950;2023-05-10T01:04:01;17.20;;;12.15;;
64857;SDS011;51335;51.148;6.950;2023-05-10T01:04:32;17.58;;;12.52;;
64857;SDS011;51335;51.148;6.950;2023-05-10T01:05:03;17.20;;;11.75;;
64857;SDS011;51335;51.148;6.950;2023-05-10T01:05:33;16.00;;;11.65;;
64857;SDS011;51335;51.148;6.950;2023-05-10T01:06:03;18.33;;;12.32;;
64857;SDS011;51335;51.148;6.950;2023-05-10T01:06:34;16.15;;;11.05;;
64857;SDS011;51335;51.148;6.950;2023-05-10T01:07:04;16.58;;;11.77;;
64857;SDS011;51335;51.148;6.950;2023-05-10T01:07:35;17.17;;;12.60;;
64857;SDS011;51335;51.148;6.950;2023-05-10T01:08:05;15.45;;;11.75;;
64857;SDS011;51335;51.148;6.950;2023-05-10T01:08:36;16.75;;;11.98;;
64857;SDS011;51335;51.148;6.950;2023-05-10T01:09:06;17.58;;;11.80;;
64857;SDS011;51335;51.148;6.950;2023-05-10T01:09:37;19.45;;;12.15;;
64857;SDS011;51335;51.148;6.950;2023-05-10T01:10:07;17.75;;;12.10;;
64857;SDS011;51335;51.148;6.950;2023-05-10T01:10:38;18.33;;;12.25;;
64857;SDS011;51335;51.148;6.950;2023-05-10T01:11:09;16.52;;;11.82;;
64857;SDS011;51335;51.148;6.950;2023-05-10T01:11:39;16.65;;;12.00;;
64857;SDS011;51335;51.148;6.950;2023-05-10T01:12:10;17.35;;;11.60;;
64857;SDS011;51335;51.148;6.950;2023-05-10T01:12:40;17.17;;;11.70;;
64857;SDS011;51335;51.148;6.950;2023-05-10T01:13:13;17.20;;;12.20;;
64857;SDS011;51335;51.148;6.950;2023-05-10T01:13:50;16.45;;;11.27;;
64857;SDS011;51335;51.148;6.950;2023-05-10T01:14:25;17.65;;;12.05;;
64857;SDS011;51335;51.148;6.950;2023-05-10T01:14:56;17.95;;;11.85;;
64857;SDS011;51335;51.148;6.950;2023-05-10T01:15:27;16.20;;;11.38;;
64857;SDS011;51335;51.148;6.950;2023-05-10T01:15:57;17.13;;;11.50;;
64857;SDS011;51335;51.148;6.950;2023-05-10T01:16:29;15.05;;;11.30;;
64857;SDS011;51335;51.148;6.950;2023-05-10T01:17:04;19.52;;;11.63;;
64857;SDS011;51335;51.148;6.950;2023-05-10T01:17:35;16.40;;;11.63;;
64857;SDS011;51335;51.148;6.950;2023-05-10T01:18:08;18.08;;;12.15;;
64857;SDS011;51335;51.148;6.950;2023-05-10T01:18:39;17.65;;;11.93;;
64857;SDS011;51335;51.148;6.950;2023-05-10T01:19:12;17.10;;;12.05;;
64857;SDS011;51335;51.148;6.950;2023-05-10T01:19:47;17.33;;;12.43;;
64857;SDS011;51335;51.148;6.950;2023-05-10T01:20:17;16.73;;;11.70;;
64857;SDS011;51335;51.148;6.950;2023-05-10T01:20:48;17.52;;;11.65;;
64857;SDS011;51335;51.148;6.950;2023-05-10T01:21:48;20.38;;;12.02;;
64857;SDS011;51335;51.148;6.950;2023-05-10T01:22:38;15.32;;;11.13;;
64857;SDS011;51335;51.148;6.950;2023-05-10T01:24:20;14.52;;;10.65;;
64857;SDS011;51335;51.148;6.950;2023-05-10T01:33:54;14.02;;;10.60;;
64857;SDS011;51335;51.148;6.950;2023-05-10T01:34:32;19.20;;;10.93;;
64857;SDS011;51335;51.148;6.950;2023-05-10T01:35:06;15.18;;;10.27;;
64857;SDS011;51335;51.148;6.950;2023-05-10T01:36:55;12.93;;;8.85;;
64857;SDS011;51335;51.148;6.950;2023-05-10T01:39:20;10.45;;;7.35;;
64857;SDS011;51335;51.148;6.950;2023-05-10T01:41:06;11.68;;;8.05;;
64857;SDS011;51335;51.148;6.950;2023-05-10T01:41:54;11.88;;;8.10;;
64857;SDS011;51335;51.148;6.950;2023-05-10T01:42:31;12.50;;;8.02;;
64857;SDS011;51335;51.148;6.950;2023-05-10T01:43:11;17.40;;;8.95;;
64857;SDS011;51335;51.148;6.950;2023-05-10T01:44:42;15.07;;;8.95;;
64857;SDS011;51335;51.148;6.950;2023-05-10T01:46:02;14.80;;;8.30;;
64857;SDS011;51335;51.148;6.950;2023-05-10T01:46:37;9.95;;;7.38;;
64857;SDS011;51335;51.148;6.950;2023-05-10T01:47:10;11.43;;;7.47;;
64857;SDS011;51335;51.148;6.950;2023-05-10T01:47:49;11.48;;;7.82;;
64857;SDS011;51335;51.148;6.950;2023-05-10T01:48:24;13.25;;;7.88;;
64857;SDS011;51335;51.148;6.950;2023-05-10T01:48:57;13.70;;;7.97;;
64857;SDS011;51335;51.148;6.950;2023-05-10T01:49:32;15.52;;;8.18;;
64857;SDS011;51335;51.148;6.950;2023-05-10T01:50:15;12.95;;;8.55;;
64857;SDS011;51335;51.148;6.950;2023-05-10T01:50:47;12.15;;;8.13;;
64857;SDS011;51335;51.148;6.950;2023-05-10T01:51:24;13.55;;;8.32;;
64857;SDS011;51335;51.148;6.950;2023-05-10T01:51:59;14.85;;;8.75;;
64857;SDS011;51335;51.148;6.950;2023-05-10T01:52:36;12.65;;;8.18;;
64857;SDS011;51335;51.148;6.950;2023-05-10T01:53:11;12.90;;;8.10;;
64857;SDS011;51335;51.148;6.950;2023-05-10T01:53:43;12.30;;;8.23;;
64857;SDS011;51335;51.148;6.950;2023-05-10T01:54:15;12.77;;;7.63;;
64857;SDS011;51335;51.148;6.950;2023-05-10T01:54:50;11.20;;;7.47;;
64857;SDS011;51335;51.148;6.950;2023-05-10T01:55:27;9.85;;;7.60;;
64857;SDS011;51335;51.148;6.950;2023-05-10T01:56:00;10.52;;;7.00;;
64857;SDS011;51335;51.148;6.950;2023-05-10T01:56:32;9.70;;;6.53;;
64857;SDS011;51335;51.148;6.950;2023-05-10T01:57:05;7.38;;;5.85;;
64857;SDS011;51335;51.148;6.950;2023-05-10T01:57:37;11.20;;;6.15;;
64857;SDS011;51335;51.148;6.950;2023-05-10T01:58:13;9.35;;;6.28;;
64857;SDS011;51335;51.148;6.950;2023-05-10T01:59:36;8.05;;;5.05;;
64857;SDS011;51335;51.148;6.950;2023-05-10T02:00:09;7.07;;;5.03;;
64857;SDS011;51335;51.148;6.950;2023-05-10T02:00:42;9.27;;;5.47;;
64857;SDS011;51335;51.148;6.950;2023-05-10T02:01:14;8.65;;;5.38;;
64857;SDS011;51335;51.148;6.950;2023-05-10T02:01:45;9.68;;;5.53;;
64857;SDS011;51335;51.148;6.950;2023-05-10T02:02:18;8.80;;;5.68;;
64857;SDS011;51335;51.148;6.950;2023-05-10T02:02:50;7.00;;;5.10;;
64857;SDS011;51335;51.148;6.950;2023-05-10T02:03:23;7.45;;;4.90;;
64857;SDS011;51335;51.148;6.950;2023-05-10T02:03:54;9.07;;;5.20;;
64857;SDS011;51335;51.148;6.950;2023-05-10T02:04:26;7.78;;;4.88;;
64857;SDS011;51335;51.148;6.950;2023-05-10T02:04:57;5.85;;;4.18;;
64857;SDS011;51335;51.148;6.950;2023-05-10T02:05:29;8.23;;;5.20;;
64857;SDS011;51335;51.148;6.950;2023-05-10T02:06:01;8.48;;;4.90;;
64857;SDS011;51335;51.148;6.950;2023-05-10T02:06:34;7.20;;;5.10;;
64857;SDS011;51335;51.148;6.950;2023-05-10T02:07:06;9.73;;;5.40;;
64857;SDS011;51335;51.148;6.950;2023-05-10T02:07:38;7.53;;;4.90;;
64857;SDS011;51335;51.148;6.950;2023-05-10T02:08:09;6.97;;;4.85;;
64857;SDS011;51335;51.148;6.950;2023-05-10T02:08:40;8.98;;;5.32;;
64857;SDS011;51335;51.148;6.950;2023-05-10T02:09:11;8.10;;;5.05;;
64857;SDS011;51335;51.148;6.950;2023-05-10T02:09:43;8.98;;;5.18;;
64857;SDS011;51335;51.148;6.950;2023-05-10T02:10:15;8.93;;;5.10;;
64857;SDS011;51335;51.148;6.950;2023-05-10T02:10:48;7.63;;;5.15;;
64857;SDS011;51335;51.148;6.950;2023-05-10T02:11:20;6.68;;;4.90;;
64857;SDS011;51335;51.148;6.950;2023-05-10T02:11:52;10.45;;;5.20;;
64857;SDS011;51335;51.148;6.950;2023-05-10T02:12:24;11.57;;;5.60;;
64857;SDS011;51335;51.148;6.950;2023-05-10T02:12:55;8.15;;;5.10;;
64857;SDS011;51335;51.148;6.950;2023-05-10T02:13:28;9.88;;;5.20;;
64857;SDS011;51335;51.148;6.950;2023-05-10T02:14:01;7.95;;;5.22;;
64857;SDS011;51335;51.148;6.950;2023-05-10T02:14:32;8.60;;;5.18;;
64857;SDS011;51335;51.148;6.950;2023-05-10T02:15:05;9.02;;;5.60;;
64857;SDS011;51335;51.148;6.950;2023-05-10T02:15:37;11.45;;;5.47;;
64857;SDS011;51335;51.148;6.950;2023-05-10T02:16:09;8.05;;;5.90;;
64857;SDS011;51335;51.148;6.950;2023-05-10T02:16:41;10.43;;;6.30;;
64857;SDS011;51335;51.148;6.950;2023-05-10T02:17:12;10.75;;;6.10;;
64857;SDS011;51335;51.148;6.950;2023-05-10T02:17:44;9.77;;;6.13;;
64857;SDS011;51335;51.148;6.950;2023-05-10T02:18:16;12.48;;;6.10;;
64857;SDS011;51335;51.148;6.950;2023-05-10T02:18:47;9.52;;;5.63;;
64857;SDS011;51335;51.148;6.950;2023-05-10T02:19:18;10.57;;;5.78;;
64857;SDS011;51335;51.148;6.950;2023-05-10T02:19:49;11.40;;;5.93;;
64857;SDS011;51335;51.148;6.950;2023-05-10T02:20:22;9.02;;;6.00;;
64857;SDS011;51335;51.148;6.950;2023-05-10T02:20:54;13.30;;;6.22;;
64857;SDS011;51335;51.148;6.950;2023-05-10T02:21:25;9.75;;;6.25;;
64857;SDS011;51335;51.148;6.950;2023-05-10T02:21:57;9.02;;;6.20;;
64857;SDS011;51335;51.148;6.950;2023-05-10T02:22:29;11.30;;;6.45;;
64857;SDS011;51335;51.148;6.950;2023-05-10T02:22:59;9.10;;;6.15;;
64857;SDS011;51335;51.148;6.950;2023-05-10T02:23:32;9.15;;;6.40;;
64857;SDS011;51335;51.148;6.950;2023-05-10T02:24:03;10.18;;;6.53;;
64857;SDS011;51335;51.148;6.950;2023-05-10T02:24:34;10.02;;;6.28;;
64857;SDS011;51335;51.148;6.950;2023-05-10T02:25:06;9.18;;;6.30;;
64857;SDS011;51335;51.148;6.950;2023-05-10T02:25:38;11.15;;;7.47;;
64857;SDS011;51335;51.148;6.950;2023-05-10T02:26:09;13.23;;;7.63;;
64857;SDS011;51335;51.148;6.950;2023-05-10T02:26:41;14.15;;;6.85;;
64857;SDS011;51335;51.148;6.950;2023-05-10T02:27:13;10.57;;;6.43;;
64857;SDS011;51335;51.148;6.950;2023-05-10T02:27:45;11.30;;;7.40;;
64857;SDS011;51335;51.148;6.950;2023-05-10T02:28:17;10.98;;;6.35;;
64857;SDS011;51335;51.148;6.950;2023-05-10T02:28:49;11.73;;;6.70;;
64857;SDS011;51335;51.148;6.950;2023-05-10T02:29:20;10.82;;;6.95;;
64857;SDS011;51335;51.148;6.950;2023-05-10T02:29:51;12.88;;;7.15;;
64857;SDS011;51335;51.148;6.950;2023-05-10T02:30:23;9.30;;;6.75;;
64857;SDS011;51335;51.148;6.950;2023-05-10T02:30:54;11.73;;;7.00;;
64857;SDS011;51335;51.148;6.950;2023-05-10T02:31:25;10.73;;;7.00;;
64857;SDS011;51335;51.148;6.950;2023-05-10T02:31:56;10.90;;;7.22;;
64857;SDS011;51335;51.148;6.950;2023-05-10T02:32:28;13.13;;;7.50;;
64857;SDS011;51335;51.148;6.950;2023-05-10T02:33:00;12.43;;;6.63;;
64857;SDS011;51335;51.148;6.950;2023-05-10T02:33:33;11.43;;;7.15;;
64857;SDS011;51335;51.148;6.950;2023-05-10T02:34:05;10.50;;;7.35;;
64857;SDS011;51335;51.148;6.950;2023-05-10T02:34:38;14.68;;;7.90;;
64857;SDS011;51335;51.148;6.950;2023-05-10T02:35:08;13.40;;;7.45;;
64857;SDS011;51335;51.148;6.950;2023-05-10T02:35:40;13.27;;;7.55;;
64857;SDS011;51335;51.148;6.950;2023-05-10T02:36:11;10.65;;;7.65;;
64857;SDS011;51335;51.148;6.950;2023-05-10T02:36:43;12.98;;;8.00;;
64857;SDS011;51335;51.148;6.950;2023-05-10T02:37:14;13.48;;;7.97;;
64857;SDS011;51335;51.148;6.950;2023-05-10T02:37:46;15.57;;;8.60;;
64857;SDS011;51335;51.148;6.950;2023-05-10T02:38:18;16.17;;;8.07;;
64857;SDS011;51335;51.148;6.950;2023-05-10T02:38:50;13.02;;;8.45;;
64857;SDS011;51335;51.148;6.950;2023-05-10T02:39:22;15.38;;;8.43;;
64857;SDS011;51335;51.148;6.950;2023-05-10T02:39:54;15.73;;;9.23;;
64857;SDS011;51335;51.148;6.950;2023-05-10T02:40:25;12.95;;;8.63;;
64857;SDS011;51335;51.148;6.950;2023-05-10T02:40:57;16.00;;;9.07;;
64857;SDS011;51335;51.148;6.950;2023-05-10T02:41:28;15.05;;;8.98;;
64857;SDS011;51335;51.148;6.950;2023-05-10T02:42:02;13.07;;;8.73;;
64857;SDS011;51335;51.148;6.950;2023-05-10T02:42:33;14.55;;;9.05;;
64857;SDS011;51335;51.148;6.950;2023-05-10T02:43:06;14.32;;;9.10;;
64857;SDS011;51335;51.148;6.950;2023-05-10T02:43:41;16.60;;;8.90;;
64857;SDS011;51335;51.148;6.950;2023-05-10T02:44:13;17.90;;;9.10;;
64857;SDS011;51335;51.148;6.950;2023-05-10T02:44:45;16.50;;;9.32;;
64857;SDS011;51335;51.148;6.950;2023-05-10T02:45:19;12.35;;;8.68;;
64857;SDS011;51335;51.148;6.950;2023-05-10T02:45:51;15.75;;;8.45;;
64857;SDS011;51335;51.148;6.950;2023-05-10T02:46:22;15.95;;;8.77;;
64857;SDS011;51335;51.148;6.950;2023-05-10T02:46:52;15.40;;;9.07;;
64857;SDS011;51335;51.148;6.950;2023-05-10T02:47:23;21.83;;;9.60;;
64857;SDS011;51335;51.148;6.950;2023-05-10T02:47:53;16.13;;;9.45;;
64857;SDS011;51335;51.148;6.950;2023-05-10T02:48:24;15.93;;;9.23;;
64857;SDS011;51335;51.148;6.950;2023-05-10T02:48:54;14.40;;;9.25;;
64857;SDS011;51335;51.148;6.950;2023-05-10T02:49:25;16.23;;;9.13;;
64857;SDS011;51335;51.148;6.950;2023-05-10T02:49:55;14.75;;;10.02;;
64857;SDS011;51335;51.148;6.950;2023-05-10T02:50:26;15.20;;;9.60;;
64857;SDS011;51335;51.148;6.950;2023-05-10T02:51:00;14.15;;;9.00;;
64857;SDS011;51335;51.148;6.950;2023-05-10T02:51:35;21.13;;;9.05;;
64857;SDS011;51335;51.148;6.950;2023-05-10T02:52:10;12.90;;;8.52;;
64857;SDS011;51335;51.148;6.950;2023-05-10T02:52:45;13.27;;;8.85;;
64857;SDS011;51335;51.148;6.950;2023-05-10T02:53:21;15.15;;;9.15;;
64857;SDS011;51335;51.148;6.950;2023-05-10T02:54:06;15.18;;;9.30;;
64857;SDS011;51335;51.148;6.950;2023-05-10T02:54:44;15.27;;;8.35;;
64857;SDS011;51335;51.148;6.950;2023-05-10T02:55:16;13.27;;;7.95;;
64857;SDS011;51335;51.148;6.950;2023-05-10T02:55:51;14.30;;;8.32;;
64857;SDS011;51335;51.148;6.950;2023-05-10T02:56:25;12.70;;;8.38;;
64857;SDS011;51335;51.148;6.950;2023-05-10T02:56:59;12.75;;;8.98;;
64857;SDS011;51335;51.148;6.950;2023-05-10T02:57:33;14.05;;;8.63;;
64857;SDS011;51335;51.148;6.950;2023-05-10T02:58:04;11.57;;;8.02;;
64857;SDS011;51335;51.148;6.950;2023-05-10T02:58:35;14.55;;;8.85;;
64857;SDS011;51335;51.148;6.950;2023-05-10T02:59:05;13.95;;;8.80;;
64857;SDS011;51335;51.148;6.950;2023-05-10T02:59:36;12.15;;;8.50;;
64857;SDS011;51335;51.148;6.950;2023-05-10T03:00:06;17.20;;;9.18;;
64857;SDS011;51335;51.148;6.950;2023-05-10T03:00:37;16.15;;;9.35;;
64857;SDS011;51335;51.148;6.950;2023-05-10T03:01:07;19.65;;;9.27;;
64857;SDS011;51335;51.148;6.950;2023-05-10T03:01:37;15.18;;;9.15;;
64857;SDS011;51335;51.148;6.950;2023-05-10T03:02:08;13.35;;;9.07;;
64857;SDS011;51335;51.148;6.950;2023-05-10T03:02:39;13.98;;;8.77;;
64857;SDS011;51335;51.148;6.950;2023-05-10T03:03:09;13.32;;;9.32;;
64857;SDS011;51335;51.148;6.950;2023-05-10T03:03:39;14.05;;;9.07;;
64857;SDS011;51335;51.148;6.950;2023-05-10T03:04:09;16.38;;;8.98;;
64857;SDS011;51335;51.148;6.950;2023-05-10T03:04:40;12.93;;;8.82;;
64857;SDS011;51335;51.148;6.950;2023-05-10T03:05:10;12.00;;;8.63;;
64857;SDS011;51335;51.148;6.950;2023-05-10T03:05:40;15.00;;;9.57;;
64857;SDS011;51335;51.148;6.950;2023-05-10T03:06:11;14.70;;;9.13;;
64857;SDS011;51335;51.148;6.950;2023-05-10T03:06:41;13.32;;;9.00;;
64857;SDS011;51335;51.148;6.950;2023-05-10T03:07:12;12.50;;;9.25;;
64857;SDS011;51335;51.148;6.950;2023-05-10T03:07:43;13.82;;;9.10;;
64857;SDS011;51335;51.148;6.950;2023-05-10T03:08:13;12.10;;;8.88;;
64857;SDS011;51335;51.148;6.950;2023-05-10T03:08:44;13.32;;;8.85;;
64857;SDS011;51335;51.148;6.950;2023-05-10T03:09:15;12.02;;;8.65;;
64857;SDS011;51335;51.148;6.950;2023-05-10T03:09:45;13.90;;;8.90;;
64857;SDS011;51335;51.148;6.950;2023-05-10T03:10:15;13.23;;;8.88;;
64857;SDS011;51335;51.148;6.950;2023-05-10T03:12:26;11.65;;;8.43;;
64857;SDS011;51335;51.148;6.950;2023-05-10T03:16:29;14.10;;;8.20;;
64857;SDS011;51335;51.148;6.950;2023-05-10T03:17:30;10.88;;;8.07;;
64857;SDS011;51335;51.148;6.950;2023-05-10T03:18:52;13.75;;;8.35;;
64857;SDS011;51335;51.148;6.950;2023-05-10T03:19:27;13.73;;;8.32;;
64857;SDS011;51335;51.148;6.950;2023-05-10T03:20:03;13.27;;;8.90;;
64857;SDS011;51335;51.148;6.950;2023-05-10T03:20:38;12.70;;;8.48;;
64857;SDS011;51335;51.148;6.950;2023-05-10T03:21:12;12.25;;;8.55;;
64857;SDS011;51335;51.148;6.950;2023-05-10T03:21:47;13.07;;;8.77;;
64857;SDS011;51335;51.148;6.950;2023-05-10T03:22:37;13.13;;;8.35;;
64857;SDS011;51335;51.148;6.950;2023-05-10T03:23:17;15.20;;;8.00;;
64857;SDS011;51335;51.148;6.950;2023-05-10T03:23:59;14.95;;;8.57;;
64857;SDS011;51335;51.148;6.950;2023-05-10T03:24:35;13.02;;;7.63;;
64857;SDS011;51335;51.148;6.950;2023-05-10T03:25:08;11.15;;;7.88;;
64857;SDS011;51335;51.148;6.950;2023-05-10T03:25:40;12.52;;;7.95;;
64857;SDS011;51335;51.148;6.950;2023-05-10T03:26:13;14.07;;;8.23;;
64857;SDS011;51335;51.148;6.950;2023-05-10T03:26:55;12.07;;;7.93;;
64857;SDS011;51335;51.148;6.950;2023-05-10T03:27:29;12.98;;;8.15;;
64857;SDS011;51335;51.148;6.950;2023-05-10T03:28:00;11.55;;;7.57;;
64857;SDS011;51335;51.148;6.950;2023-05-10T03:28:31;11.57;;;8.15;;
64857;SDS011;51335;51.148;6.950;2023-05-10T03:29:05;12.75;;;7.88;;
64857;SDS011;51335;51.148;6.950;2023-05-10T03:29:36;12.93;;;8.20;;
64857;SDS011;51335;51.148;6.950;2023-05-10T03:30:08;14.00;;;8.38;;
64857;SDS011;51335;51.148;6.950;2023-05-10T03:30:41;13.45;;;8.50;;
64857;SDS011;51335;51.148;6.950;2023-05-10T03:31:13;12.18;;;8.07;;
64857;SDS011;51335;51.148;6.950;2023-05-10T03:31:44;12.43;;;8.20;;
64857;SDS011;51335;51.148;6.950;2023-05-10T03:32:14;18.35;;;8.57;;